sensor_id;sensor_type;location;lat;lon;timestamp;temperature;humidity
66934;DHT22;53846;51.984;5.890;2022-09-09T00:01:30;18.60;76.00
66934;DHT22;53846;51.984;5.890;2022-09-09T00:04:09;18.50;76.10
66934;DHT22;53846;51.984;5.890;2022-09-09T00:06:45;18.80;75.90
66934;DHT22;53846;51.984;5.890;2022-09-09T00:09:17;18.70;75.60
66934;DHT22;53846;51.984;5.890;2022-09-09T00:11:49;18.70;75.40
66934;DHT22;53846;51.984;5.890;2022-09-09T00:14:25;18.40;74.90
66934;DHT22;53846;51.984;5.890;2022-09-09T00:17:02;18.40;74.50
66934;DHT22;53846;51.984;5.890;2022-09-09T00:19:38;18.60;75.00
66934;DHT22;53846;51.984;5.890;2022-09-09T00:22:16;18.60;75.00
66934;DHT22;53846;51.984;5.890;2022-09-09T00:24:47;18.40;74.60
66934;DHT22;53846;51.984;5.890;2022-09-09T00:27:24;18.50;74.90
66934;DHT22;53846;51.984;5.890;2022-09-09T00:29:57;18.70;74.80
66934;DHT22;53846;51.984;5.890;2022-09-09T00:32:31;18.50;75.00
66934;DHT22;53846;51.984;5.890;2022-09-09T00:35:04;18.50;74.80
66934;DHT22;53846;51.984;5.890;2022-09-09T00:37:39;18.70;74.60
66934;DHT22;53846;51.984;5.890;2022-09-09T00:40:18;19.00;74.60
66934;DHT22;53846;51.984;5.890;2022-09-09T00:43:06;18.90;74.50
66934;DHT22;53846;51.984;5.890;2022-09-09T00:45:57;18.80;74.20
66934;DHT22;53846;51.984;5.890;2022-09-09T00:48:37;18.70;73.90
66934;DHT22;53846;51.984;5.890;2022-09-09T00:51:15;18.90;73.70
66934;DHT22;53846;51.984;5.890;2022-09-09T00:54:06;19.00;73.70
66934;DHT22;53846;51.984;5.890;2022-09-09T00:56:46;18.80;73.60
66934;DHT22;53846;51.984;5.890;2022-09-09T00:59:24;19.00;73.90
66934;DHT22;53846;51.984;5.890;2022-09-09T01:01:57;18.90;73.90
66934;DHT22;53846;51.984;5.890;2022-09-09T01:04:34;18.80;73.70
66934;DHT22;53846;51.984;5.890;2022-09-09T01:07:12;18.60;74.20
66934;DHT22;53846;51.984;5.890;2022-09-09T01:09:51;18.60;74.70
66934;DHT22;53846;51.984;5.890;2022-09-09T01:12:26;18.80;74.80
66934;DHT22;53846;51.984;5.890;2022-09-09T01:15:04;18.80;75.00
66934;DHT22;53846;51.984;5.890;2022-09-09T01:17:52;18.50;74.80
66934;DHT22;53846;51.984;5.890;2022-09-09T01:20:29;18.50;75.00
66934;DHT22;53846;51.984;5.890;2022-09-09T01:23:14;18.50;75.20
66934;DHT22;53846;51.984;5.890;2022-09-09T01:26:13;18.50;74.90
66934;DHT22;53846;51.984;5.890;2022-09-09T01:28:46;18.40;74.80
66934;DHT22;53846;51.984;5.890;2022-09-09T01:31:19;18.60;75.30
66934;DHT22;53846;51.984;5.890;2022-09-09T01:33:49;18.40;75.50
66934;DHT22;53846;51.984;5.890;2022-09-09T01:36:26;18.40;75.30
66934;DHT22;53846;51.984;5.890;2022-09-09T01:38:57;18.10;75.00
66934;DHT22;53846;51.984;5.890;2022-09-09T01:41:29;18.30;75.10
66934;DHT22;53846;51.984;5.890;2022-09-09T01:44:04;18.30;74.90
66934;DHT22;53846;51.984;5.890;2022-09-09T01:46:35;18.30;74.80
66934;DHT22;53846;51.984;5.890;2022-09-09T01:49:08;18.40;75.60
66934;DHT22;53846;51.984;5.890;2022-09-09T01:51:38;18.00;75.30
66934;DHT22;53846;51.984;5.890;2022-09-09T01:54:11;18.20;75.00
66934;DHT22;53846;51.984;5.890;2022-09-09T01:56:47;18.20;75.50
66934;DHT22;53846;51.984;5.890;2022-09-09T01:59:33;18.20;75.50
66934;DHT22;53846;51.984;5.890;2022-09-09T02:02:10;18.20;75.20
66934;DHT22;53846;51.984;5.890;2022-09-09T02:04:48;18.20;75.00
66934;DHT22;53846;51.984;5.890;2022-09-09T02:07:32;18.00;75.80
66934;DHT22;53846;51.984;5.890;2022-09-09T02:10:10;18.20;75.50
66934;DHT22;53846;51.984;5.890;2022-09-09T02:12:55;18.30;75.00
66934;DHT22;53846;51.984;5.890;2022-09-09T02:15:32;18.20;74.80
66934;DHT22;53846;51.984;5.890;2022-09-09T02:18:05;18.20;74.40
66934;DHT22;53846;51.984;5.890;2022-09-09T02:20:37;18.20;74.20
66934;DHT22;53846;51.984;5.890;2022-09-09T02:23:08;18.20;74.10
66934;DHT22;53846;51.984;5.890;2022-09-09T02:25:40;18.20;73.90
66934;DHT22;53846;51.984;5.890;2022-09-09T02:28:22;18.40;74.10
66934;DHT22;53846;51.984;5.890;2022-09-09T02:30:52;18.20;74.10
66934;DHT22;53846;51.984;5.890;2022-09-09T02:33:30;18.20;74.40
66934;DHT22;53846;51.984;5.890;2022-09-09T02:36:02;18.10;74.60
66934;DHT22;53846;51.984;5.890;2022-09-09T02:38:35;18.10;74.70
66934;DHT22;53846;51.984;5.890;2022-09-09T02:41:09;18.10;75.30
66934;DHT22;53846;51.984;5.890;2022-09-09T02:43:41;18.10;75.40
66934;DHT22;53846;51.984;5.890;2022-09-09T02:46:27;18.00;75.30
66934;DHT22;53846;51.984;5.890;2022-09-09T02:49:02;18.00;75.50
66934;DHT22;53846;51.984;5.890;2022-09-09T02:51:40;17.90;75.30
66934;DHT22;53846;51.984;5.890;2022-09-09T02:54:17;18.00;75.40
66934;DHT22;53846;51.984;5.890;2022-09-09T02:56:52;18.10;75.30
66934;DHT22;53846;51.984;5.890;2022-09-09T02:59:33;17.60;74.70
66934;DHT22;53846;51.984;5.890;2022-09-09T03:02:02;18.00;74.70
66934;DHT22;53846;51.984;5.890;2022-09-09T03:04:32;17.90;74.40
66934;DHT22;53846;51.984;5.890;2022-09-09T03:07:01;17.90;74.10
66934;DHT22;53846;51.984;5.890;2022-09-09T03:09:31;17.80;74.20
66934;DHT22;53846;51.984;5.890;2022-09-09T03:12:00;18.10;75.10
66934;DHT22;53846;51.984;5.890;2022-09-09T03:14:34;17.90;75.30
66934;DHT22;53846;51.984;5.890;2022-09-09T03:17:04;18.10;75.60
66934;DHT22;53846;51.984;5.890;2022-09-09T03:19:39;17.60;75.10
66934;DHT22;53846;51.984;5.890;2022-09-09T03:22:10;17.60;75.20
66934;DHT22;53846;51.984;5.890;2022-09-09T03:24:42;17.90;75.30
66934;DHT22;53846;51.984;5.890;2022-09-09T03:27:13;17.80;75.30
66934;DHT22;53846;51.984;5.890;2022-09-09T03:29:46;17.80;75.30
66934;DHT22;53846;51.984;5.890;2022-09-09T03:32:20;17.80;75.70
66934;DHT22;53846;51.984;5.890;2022-09-09T03:34:50;17.80;76.20
66934;DHT22;53846;51.984;5.890;2022-09-09T03:37:20;17.80;76.00
66934;DHT22;53846;51.984;5.890;2022-09-09T03:39:50;18.10;75.90
66934;DHT22;53846;51.984;5.890;2022-09-09T03:42:22;17.80;75.80
66934;DHT22;53846;51.984;5.890;2022-09-09T03:44:56;17.90;75.70
66934;DHT22;53846;51.984;5.890;2022-09-09T03:47:26;17.80;75.70
66934;DHT22;53846;51.984;5.890;2022-09-09T03:50:01;17.70;75.60
66934;DHT22;53846;51.984;5.890;2022-09-09T03:52:35;17.80;75.60
66934;DHT22;53846;51.984;5.890;2022-09-09T03:55:07;18.10;76.50
66934;DHT22;53846;51.984;5.890;2022-09-09T03:57:37;18.00;76.10
66934;DHT22;53846;51.984;5.890;2022-09-09T04:00:12;17.80;75.80
66934;DHT22;53846;51.984;5.890;2022-09-09T04:02:51;17.90;75.90
66934;DHT22;53846;51.984;5.890;2022-09-09T04:05:22;18.10;76.40
66934;DHT22;53846;51.984;5.890;2022-09-09T04:07:51;17.70;76.20
66934;DHT22;53846;51.984;5.890;2022-09-09T04:10:21;17.90;76.00
66934;DHT22;53846;51.984;5.890;2022-09-09T04:12:51;17.90;76.20
66934;DHT22;53846;51.984;5.890;2022-09-09T04:15:24;17.90;76.00
66934;DHT22;53846;51.984;5.890;2022-09-09T04:17:53;17.60;75.40
66934;DHT22;53846;51.984;5.890;2022-09-09T04:20:23;17.70;75.30
66934;DHT22;53846;51.984;5.890;2022-09-09T04:22:52;18.00;75.30
66934;DHT22;53846;51.984;5.890;2022-09-09T04:25:21;18.00;75.60
66934;DHT22;53846;51.984;5.890;2022-09-09T04:27:53;18.10;75.40
66934;DHT22;53846;51.984;5.890;2022-09-09T04:30:25;18.00;75.30
66934;DHT22;53846;51.984;5.890;2022-09-09T04:32:54;18.10;75.30
66934;DHT22;53846;51.984;5.890;2022-09-09T04:35:23;18.10;75.10
66934;DHT22;53846;51.984;5.890;2022-09-09T04:37:53;18.00;74.90
66934;DHT22;53846;51.984;5.890;2022-09-09T04:40:22;17.80;74.70
66934;DHT22;53846;51.984;5.890;2022-09-09T04:42:51;18.10;74.90
66934;DHT22;53846;51.984;5.890;2022-09-09T04:45:20;18.00;74.70
66934;DHT22;53846;51.984;5.890;2022-09-09T04:47:53;18.10;74.80
66934;DHT22;53846;51.984;5.890;2022-09-09T04:50:22;18.20;75.60
66934;DHT22;53846;51.984;5.890;2022-09-09T04:53:00;18.20;75.50
66934;DHT22;53846;51.984;5.890;2022-09-09T04:55:29;18.40;75.70
66934;DHT22;53846;51.984;5.890;2022-09-09T04:58:03;18.20;75.50
66934;DHT22;53846;51.984;5.890;2022-09-09T05:00:33;18.20;75.70
66934;DHT22;53846;51.984;5.890;2022-09-09T05:03:07;18.30;76.10
66934;DHT22;53846;51.984;5.890;2022-09-09T05:05:37;18.40;76.00
66934;DHT22;53846;51.984;5.890;2022-09-09T05:08:08;18.20;76.00
66934;DHT22;53846;51.984;5.890;2022-09-09T05:10:38;18.20;76.40
66934;DHT22;53846;51.984;5.890;2022-09-09T05:13:08;18.30;76.40
66934;DHT22;53846;51.984;5.890;2022-09-09T05:15:37;18.20;76.80
66934;DHT22;53846;51.984;5.890;2022-09-09T05:18:12;18.20;77.00
66934;DHT22;53846;51.984;5.890;2022-09-09T05:20:41;18.40;77.50
66934;DHT22;53846;51.984;5.890;2022-09-09T05:23:10;18.00;77.30
66934;DHT22;53846;51.984;5.890;2022-09-09T05:25:40;18.30;77.30
66934;DHT22;53846;51.984;5.890;2022-09-09T05:28:09;18.30;77.50
66934;DHT22;53846;51.984;5.890;2022-09-09T05:30:39;18.20;77.60
66934;DHT22;53846;51.984;5.890;2022-09-09T05:33:10;18.20;78.20
66934;DHT22;53846;51.984;5.890;2022-09-09T05:35:39;18.30;78.20
66934;DHT22;53846;51.984;5.890;2022-09-09T05:38:08;18.20;78.20
66934;DHT22;53846;51.984;5.890;2022-09-09T05:40:38;18.10;78.30
66934;DHT22;53846;51.984;5.890;2022-09-09T05:43:09;18.20;78.20
66934;DHT22;53846;51.984;5.890;2022-09-09T05:45:38;18.20;78.30
66934;DHT22;53846;51.984;5.890;2022-09-09T05:48:07;18.20;78.40
66934;DHT22;53846;51.984;5.890;2022-09-09T05:50:39;18.20;78.30
66934;DHT22;53846;51.984;5.890;2022-09-09T05:53:08;18.20;78.40
66934;DHT22;53846;51.984;5.890;2022-09-09T05:55:37;18.30;78.30
66934;DHT22;53846;51.984;5.890;2022-09-09T05:58:08;18.20;78.10
66934;DHT22;53846;51.984;5.890;2022-09-09T06:00:37;18.30;78.40
66934;DHT22;53846;51.984;5.890;2022-09-09T06:03:06;18.20;78.60
66934;DHT22;53846;51.984;5.890;2022-09-09T06:05:41;18.40;78.60
66934;DHT22;53846;51.984;5.890;2022-09-09T06:08:10;18.40;78.50
66934;DHT22;53846;51.984;5.890;2022-09-09T06:10:39;18.50;78.20
66934;DHT22;53846;51.984;5.890;2022-09-09T06:13:08;18.70;78.20
66934;DHT22;53846;51.984;5.890;2022-09-09T06:15:38;18.60;78.20
66934;DHT22;53846;51.984;5.890;2022-09-09T06:18:07;18.70;77.90
66934;DHT22;53846;51.984;5.890;2022-09-09T06:20:36;18.70;77.80
66934;DHT22;53846;51.984;5.890;2022-09-09T06:23:08;18.90;77.30
66934;DHT22;53846;51.984;5.890;2022-09-09T06:25:38;19.00;77.20
66934;DHT22;53846;51.984;5.890;2022-09-09T06:28:08;18.60;76.90
66934;DHT22;53846;51.984;5.890;2022-09-09T06:30:37;18.80;77.90
66934;DHT22;53846;51.984;5.890;2022-09-09T06:33:07;18.90;77.80
66934;DHT22;53846;51.984;5.890;2022-09-09T06:35:36;19.00;77.60
66934;DHT22;53846;51.984;5.890;2022-09-09T06:38:08;19.00;76.90
66934;DHT22;53846;51.984;5.890;2022-09-09T06:40:37;18.90;76.30
66934;DHT22;53846;51.984;5.890;2022-09-09T06:43:07;18.70;76.50
66934;DHT22;53846;51.984;5.890;2022-09-09T06:45:41;18.80;76.40
66934;DHT22;53846;51.984;5.890;2022-09-09T06:48:12;18.90;76.50
66934;DHT22;53846;51.984;5.890;2022-09-09T06:50:41;18.80;76.90
66934;DHT22;53846;51.984;5.890;2022-09-09T06:53:16;18.70;77.70
66934;DHT22;53846;51.984;5.890;2022-09-09T06:55:46;18.80;77.30
66934;DHT22;53846;51.984;5.890;2022-09-09T06:58:15;19.00;77.00
66934;DHT22;53846;51.984;5.890;2022-09-09T07:00:44;19.10;75.90
66934;DHT22;53846;51.984;5.890;2022-09-09T07:03:14;19.20;77.00
66934;DHT22;53846;51.984;5.890;2022-09-09T07:05:43;19.30;77.00
66934;DHT22;53846;51.984;5.890;2022-09-09T07:08:25;19.40;76.80
66934;DHT22;53846;51.984;5.890;2022-09-09T07:10:54;19.50;75.50
66934;DHT22;53846;51.984;5.890;2022-09-09T07:13:31;19.50;74.90
66934;DHT22;53846;51.984;5.890;2022-09-09T07:16:03;19.50;74.50
66934;DHT22;53846;51.984;5.890;2022-09-09T07:18:33;19.80;74.40
66934;DHT22;53846;51.984;5.890;2022-09-09T07:21:03;19.90;73.70
66934;DHT22;53846;51.984;5.890;2022-09-09T07:23:35;19.90;73.00
66934;DHT22;53846;51.984;5.890;2022-09-09T07:26:08;19.60;72.80
66934;DHT22;53846;51.984;5.890;2022-09-09T07:28:38;19.90;73.30
66934;DHT22;53846;51.984;5.890;2022-09-09T07:31:14;19.80;72.70
66934;DHT22;53846;51.984;5.890;2022-09-09T07:33:44;19.90;72.60
66934;DHT22;53846;51.984;5.890;2022-09-09T07:36:16;20.20;72.50
66934;DHT22;53846;51.984;5.890;2022-09-09T07:38:51;20.00;72.00
66934;DHT22;53846;51.984;5.890;2022-09-09T07:41:23;19.80;71.90
66934;DHT22;53846;51.984;5.890;2022-09-09T07:43:52;20.30;72.10
66934;DHT22;53846;51.984;5.890;2022-09-09T07:46:25;20.20;72.10
66934;DHT22;53846;51.984;5.890;2022-09-09T07:48:56;20.20;71.50
66934;DHT22;53846;51.984;5.890;2022-09-09T07:51:30;20.10;71.60
66934;DHT22;53846;51.984;5.890;2022-09-09T07:54:04;20.30;71.90
66934;DHT22;53846;51.984;5.890;2022-09-09T07:56:34;20.00;70.10
66934;DHT22;53846;51.984;5.890;2022-09-09T07:59:04;20.10;71.80
66934;DHT22;53846;51.984;5.890;2022-09-09T08:01:36;20.10;72.00
66934;DHT22;53846;51.984;5.890;2022-09-09T08:04:08;20.00;72.10
66934;DHT22;53846;51.984;5.890;2022-09-09T08:06:44;20.20;70.90
66934;DHT22;53846;51.984;5.890;2022-09-09T08:09:17;20.20;70.80
66934;DHT22;53846;51.984;5.890;2022-09-09T08:11:47;20.30;69.90
66934;DHT22;53846;51.984;5.890;2022-09-09T08:14:17;20.20;69.50
66934;DHT22;53846;51.984;5.890;2022-09-09T08:16:47;20.10;69.80
66934;DHT22;53846;51.984;5.890;2022-09-09T08:19:20;20.00;69.90
66934;DHT22;53846;51.984;5.890;2022-09-09T08:21:50;19.70;70.20
66934;DHT22;53846;51.984;5.890;2022-09-09T08:24:22;19.90;70.80
66934;DHT22;53846;51.984;5.890;2022-09-09T08:26:52;19.90;71.10
66934;DHT22;53846;51.984;5.890;2022-09-09T08:29:23;19.60;70.20
66934;DHT22;53846;51.984;5.890;2022-09-09T08:31:55;19.90;71.40
66934;DHT22;53846;51.984;5.890;2022-09-09T08:34:26;19.90;70.70
66934;DHT22;53846;51.984;5.890;2022-09-09T08:36:59;19.60;70.50
66934;DHT22;53846;51.984;5.890;2022-09-09T08:39:37;19.50;70.60
66934;DHT22;53846;51.984;5.890;2022-09-09T08:42:28;19.70;70.50
66934;DHT22;53846;51.984;5.890;2022-09-09T08:45:14;19.70;70.80
66934;DHT22;53846;51.984;5.890;2022-09-09T08:47:59;19.90;71.70
66934;DHT22;53846;51.984;5.890;2022-09-09T08:50:35;19.70;70.70
66934;DHT22;53846;51.984;5.890;2022-09-09T08:53:16;19.60;71.40
66934;DHT22;53846;51.984;5.890;2022-09-09T08:55:51;19.70;71.50
66934;DHT22;53846;51.984;5.890;2022-09-09T08:58:28;20.00;70.90
66934;DHT22;53846;51.984;5.890;2022-09-09T09:01:19;19.80;70.80
66934;DHT22;53846;51.984;5.890;2022-09-09T09:04:00;20.00;70.80
66934;DHT22;53846;51.984;5.890;2022-09-09T09:06:43;20.10;71.40
66934;DHT22;53846;51.984;5.890;2022-09-09T09:09:20;20.10;68.80
66934;DHT22;53846;51.984;5.890;2022-09-09T09:11:54;19.90;69.40
66934;DHT22;53846;51.984;5.890;2022-09-09T09:14:34;19.80;70.10
66934;DHT22;53846;51.984;5.890;2022-09-09T09:17:12;20.00;69.20
66934;DHT22;53846;51.984;5.890;2022-09-09T09:19:44;19.90;68.20
66934;DHT22;53846;51.984;5.890;2022-09-09T09:22:18;20.00;69.20
66934;DHT22;53846;51.984;5.890;2022-09-09T09:24:52;20.00;68.90
66934;DHT22;53846;51.984;5.890;2022-09-09T09:27:31;20.00;69.70
66934;DHT22;53846;51.984;5.890;2022-09-09T09:30:13;20.10;68.40
66934;DHT22;53846;51.984;5.890;2022-09-09T09:32:49;20.20;67.60
66934;DHT22;53846;51.984;5.890;2022-09-09T09:35:21;20.30;67.60
66934;DHT22;53846;51.984;5.890;2022-09-09T09:37:50;20.30;68.80
66934;DHT22;53846;51.984;5.890;2022-09-09T09:40:21;20.30;67.30
66934;DHT22;53846;51.984;5.890;2022-09-09T09:42:56;20.10;66.90
66934;DHT22;53846;51.984;5.890;2022-09-09T09:45:29;19.90;67.80
66934;DHT22;53846;51.984;5.890;2022-09-09T09:48:04;20.20;68.60
66934;DHT22;53846;51.984;5.890;2022-09-09T09:50:47;20.30;68.30
66934;DHT22;53846;51.984;5.890;2022-09-09T09:53:22;20.30;66.90
66934;DHT22;53846;51.984;5.890;2022-09-09T09:55:56;20.40;67.50
66934;DHT22;53846;51.984;5.890;2022-09-09T09:58:31;20.60;67.60
66934;DHT22;53846;51.984;5.890;2022-09-09T10:01:01;20.50;67.20
66934;DHT22;53846;51.984;5.890;2022-09-09T10:03:32;20.60;67.30
66934;DHT22;53846;51.984;5.890;2022-09-09T10:06:04;20.70;66.30
66934;DHT22;53846;51.984;5.890;2022-09-09T10:08:43;20.70;65.60
66934;DHT22;53846;51.984;5.890;2022-09-09T10:11:28;20.60;65.30
66934;DHT22;53846;51.984;5.890;2022-09-09T10:14:08;20.50;66.30
66934;DHT22;53846;51.984;5.890;2022-09-09T10:16:55;20.40;65.90
66934;DHT22;53846;51.984;5.890;2022-09-09T10:19:30;20.10;65.80
66934;DHT22;53846;51.984;5.890;2022-09-09T10:22:05;20.20;67.10
66934;DHT22;53846;51.984;5.890;2022-09-09T10:25:01;20.20;67.40
66934;DHT22;53846;51.984;5.890;2022-09-09T10:27:40;20.20;68.70
66934;DHT22;53846;51.984;5.890;2022-09-09T10:30:18;20.30;68.30
66934;DHT22;53846;51.984;5.890;2022-09-09T10:32:51;20.20;67.70
66934;DHT22;53846;51.984;5.890;2022-09-09T10:35:29;20.30;67.20
66934;DHT22;53846;51.984;5.890;2022-09-09T10:38:15;20.10;67.40
66934;DHT22;53846;51.984;5.890;2022-09-09T10:40:59;20.40;66.80
66934;DHT22;53846;51.984;5.890;2022-09-09T10:43:42;20.40;66.90
66934;DHT22;53846;51.984;5.890;2022-09-09T10:46:22;20.40;66.80
66934;DHT22;53846;51.984;5.890;2022-09-09T10:49:06;20.40;66.70
66934;DHT22;53846;51.984;5.890;2022-09-09T10:51:40;20.30;66.10
66934;DHT22;53846;51.984;5.890;2022-09-09T10:54:23;20.40;67.00
66934;DHT22;53846;51.984;5.890;2022-09-09T10:56:56;20.40;67.80
66934;DHT22;53846;51.984;5.890;2022-09-09T10:59:30;20.40;66.80
66934;DHT22;53846;51.984;5.890;2022-09-09T11:02:07;20.40;66.60
66934;DHT22;53846;51.984;5.890;2022-09-09T11:04:47;20.40;67.00
66934;DHT22;53846;51.984;5.890;2022-09-09T11:07:25;20.20;66.70
66934;DHT22;53846;51.984;5.890;2022-09-09T11:10:01;20.50;68.40
66934;DHT22;53846;51.984;5.890;2022-09-09T11:12:36;20.60;67.40
66934;DHT22;53846;51.984;5.890;2022-09-09T11:15:12;20.60;66.90
66934;DHT22;53846;51.984;5.890;2022-09-09T11:17:49;20.50;66.20
66934;DHT22;53846;51.984;5.890;2022-09-09T11:20:21;20.50;67.70
66934;DHT22;53846;51.984;5.890;2022-09-09T11:22:53;20.60;69.20
66934;DHT22;53846;51.984;5.890;2022-09-09T11:25:29;20.50;70.80
66934;DHT22;53846;51.984;5.890;2022-09-09T11:28:13;20.30;71.40
66934;DHT22;53846;51.984;5.890;2022-09-09T11:30:58;20.60;72.20
66934;DHT22;53846;51.984;5.890;2022-09-09T11:34:02;20.70;72.80
66934;DHT22;53846;51.984;5.890;2022-09-09T11:36:56;20.40;70.80
66934;DHT22;53846;51.984;5.890;2022-09-09T11:39:43;20.80;70.30
66934;DHT22;53846;51.984;5.890;2022-09-09T11:42:18;20.80;69.70
66934;DHT22;53846;51.984;5.890;2022-09-09T11:44:47;20.80;68.40
66934;DHT22;53846;51.984;5.890;2022-09-09T11:47:21;20.90;69.40
66934;DHT22;53846;51.984;5.890;2022-09-09T11:50:10;20.80;69.40
66934;DHT22;53846;51.984;5.890;2022-09-09T11:52:41;20.90;69.40
66934;DHT22;53846;51.984;5.890;2022-09-09T11:55:25;20.80;69.90
66934;DHT22;53846;51.984;5.890;2022-09-09T11:57:57;20.80;69.30
66934;DHT22;53846;51.984;5.890;2022-09-09T12:00:32;20.90;70.60
66934;DHT22;53846;51.984;5.890;2022-09-09T12:03:03;20.90;69.20
66934;DHT22;53846;51.984;5.890;2022-09-09T12:05:40;20.90;70.10
66934;DHT22;53846;51.984;5.890;2022-09-09T12:08:15;21.00;70.70
66934;DHT22;53846;51.984;5.890;2022-09-09T12:10:54;21.00;70.20
66934;DHT22;53846;51.984;5.890;2022-09-09T12:13:25;21.20;70.70
66934;DHT22;53846;51.984;5.890;2022-09-09T12:15:56;21.40;68.30
66934;DHT22;53846;51.984;5.890;2022-09-09T12:18:33;21.40;68.20
66934;DHT22;53846;51.984;5.890;2022-09-09T12:21:10;21.30;67.50
66934;DHT22;53846;51.984;5.890;2022-09-09T12:23:48;21.00;67.50
66934;DHT22;53846;51.984;5.890;2022-09-09T12:26:28;21.20;68.80
66934;DHT22;53846;51.984;5.890;2022-09-09T12:29:06;21.00;67.70
66934;DHT22;53846;51.984;5.890;2022-09-09T12:31:41;20.90;69.30
66934;DHT22;53846;51.984;5.890;2022-09-09T12:34:16;20.80;69.10
66934;DHT22;53846;51.984;5.890;2022-09-09T12:36:53;20.70;70.10
66934;DHT22;53846;51.984;5.890;2022-09-09T12:39:29;20.60;70.30
66934;DHT22;53846;51.984;5.890;2022-09-09T12:42:00;20.70;71.40
66934;DHT22;53846;51.984;5.890;2022-09-09T12:44:30;20.70;70.10
66934;DHT22;53846;51.984;5.890;2022-09-09T12:47:01;20.70;69.90
66934;DHT22;53846;51.984;5.890;2022-09-09T12:49:34;20.80;69.70
66934;DHT22;53846;51.984;5.890;2022-09-09T12:52:11;20.80;71.20
66934;DHT22;53846;51.984;5.890;2022-09-09T12:54:44;20.80;70.40
66934;DHT22;53846;51.984;5.890;2022-09-09T12:57:17;20.90;69.80
66934;DHT22;53846;51.984;5.890;2022-09-09T12:59:46;20.90;70.10
66934;DHT22;53846;51.984;5.890;2022-09-09T13:02:22;20.90;68.60
66934;DHT22;53846;51.984;5.890;2022-09-09T13:04:52;20.90;69.10
66934;DHT22;53846;51.984;5.890;2022-09-09T13:07:24;20.60;68.40
66934;DHT22;53846;51.984;5.890;2022-09-09T13:09:54;20.80;68.60
66934;DHT22;53846;51.984;5.890;2022-09-09T13:12:23;20.80;69.90
66934;DHT22;53846;51.984;5.890;2022-09-09T13:14:54;20.60;71.70
66934;DHT22;53846;51.984;5.890;2022-09-09T13:17:26;20.70;72.40
66934;DHT22;53846;51.984;5.890;2022-09-09T13:19:56;20.70;72.30
66934;DHT22;53846;51.984;5.890;2022-09-09T13:22:31;20.70;73.10
66934;DHT22;53846;51.984;5.890;2022-09-09T13:25:05;20.90;72.40
66934;DHT22;53846;51.984;5.890;2022-09-09T13:27:53;20.90;72.50
66934;DHT22;53846;51.984;5.890;2022-09-09T13:30:24;20.90;71.40
66934;DHT22;53846;51.984;5.890;2022-09-09T13:33:04;21.00;70.60
66934;DHT22;53846;51.984;5.890;2022-09-09T13:35:35;21.00;70.30
66934;DHT22;53846;51.984;5.890;2022-09-09T13:38:13;21.10;70.70
66934;DHT22;53846;51.984;5.890;2022-09-09T13:40:53;21.30;70.20
66934;DHT22;53846;51.984;5.890;2022-09-09T13:43:25;21.00;68.90
66934;DHT22;53846;51.984;5.890;2022-09-09T13:45:55;21.30;69.70
66934;DHT22;53846;51.984;5.890;2022-09-09T13:48:25;21.00;69.60
66934;DHT22;53846;51.984;5.890;2022-09-09T13:50:58;21.20;69.30
66934;DHT22;53846;51.984;5.890;2022-09-09T13:53:30;21.20;68.20
66934;DHT22;53846;51.984;5.890;2022-09-09T13:55:59;21.00;68.80
66934;DHT22;53846;51.984;5.890;2022-09-09T13:58:31;21.30;68.10
66934;DHT22;53846;51.984;5.890;2022-09-09T14:01:00;21.30;69.00
66934;DHT22;53846;51.984;5.890;2022-09-09T14:03:29;21.30;69.80
66934;DHT22;53846;51.984;5.890;2022-09-09T14:05:59;21.00;69.50
66934;DHT22;53846;51.984;5.890;2022-09-09T14:08:31;21.00;69.40
66934;DHT22;53846;51.984;5.890;2022-09-09T14:11:03;20.80;70.80
66934;DHT22;53846;51.984;5.890;2022-09-09T14:13:32;21.00;70.50
66934;DHT22;53846;51.984;5.890;2022-09-09T14:16:03;21.10;70.40
66934;DHT22;53846;51.984;5.890;2022-09-09T14:18:32;21.10;69.30
66934;DHT22;53846;51.984;5.890;2022-09-09T14:21:01;21.20;68.50
66934;DHT22;53846;51.984;5.890;2022-09-09T14:23:33;21.20;67.60
66934;DHT22;53846;51.984;5.890;2022-09-09T14:26:04;21.00;68.80
66934;DHT22;53846;51.984;5.890;2022-09-09T14:28:33;20.90;68.30
66934;DHT22;53846;51.984;5.890;2022-09-09T14:31:04;20.90;68.20
66934;DHT22;53846;51.984;5.890;2022-09-09T14:33:33;21.00;67.90
66934;DHT22;53846;51.984;5.890;2022-09-09T14:36:03;20.80;68.40
66934;DHT22;53846;51.984;5.890;2022-09-09T14:38:36;20.90;69.30
66934;DHT22;53846;51.984;5.890;2022-09-09T14:41:09;20.90;69.40
66934;DHT22;53846;51.984;5.890;2022-09-09T14:43:39;21.00;68.50
66934;DHT22;53846;51.984;5.890;2022-09-09T14:46:09;21.10;68.90
66934;DHT22;53846;51.984;5.890;2022-09-09T14:48:39;21.20;68.90
66934;DHT22;53846;51.984;5.890;2022-09-09T14:51:11;21.30;68.00
66934;DHT22;53846;51.984;5.890;2022-09-09T14:53:44;21.30;68.50
66934;DHT22;53846;51.984;5.890;2022-09-09T14:56:16;21.30;68.00
66934;DHT22;53846;51.984;5.890;2022-09-09T14:58:46;21.30;67.90
66934;DHT22;53846;51.984;5.890;2022-09-09T15:01:17;21.50;67.80
66934;DHT22;53846;51.984;5.890;2022-09-09T15:03:50;21.50;67.10
66934;DHT22;53846;51.984;5.890;2022-09-09T15:06:23;21.60;66.80
66934;DHT22;53846;51.984;5.890;2022-09-09T15:08:55;21.50;67.90
66934;DHT22;53846;51.984;5.890;2022-09-09T15:11:27;21.50;68.00
66934;DHT22;53846;51.984;5.890;2022-09-09T15:13:56;21.60;68.10
66934;DHT22;53846;51.984;5.890;2022-09-09T15:16:27;21.40;67.10
66934;DHT22;53846;51.984;5.890;2022-09-09T15:18:59;21.90;66.90
66934;DHT22;53846;51.984;5.890;2022-09-09T15:21:30;21.80;66.50
66934;DHT22;53846;51.984;5.890;2022-09-09T15:24:02;21.80;66.30
66934;DHT22;53846;51.984;5.890;2022-09-09T15:26:33;21.80;67.20
66934;DHT22;53846;51.984;5.890;2022-09-09T15:29:04;21.60;67.50
66934;DHT22;53846;51.984;5.890;2022-09-09T15:31:34;21.90;68.20
66934;DHT22;53846;51.984;5.890;2022-09-09T15:34:04;21.70;67.40
66934;DHT22;53846;51.984;5.890;2022-09-09T15:36:35;21.90;67.90
66934;DHT22;53846;51.984;5.890;2022-09-09T15:39:08;21.90;68.00
66934;DHT22;53846;51.984;5.890;2022-09-09T15:41:39;21.50;67.60
66934;DHT22;53846;51.984;5.890;2022-09-09T15:44:09;21.70;67.70
66934;DHT22;53846;51.984;5.890;2022-09-09T15:46:40;21.80;68.00
66934;DHT22;53846;51.984;5.890;2022-09-09T15:49:11;21.80;68.00
66934;DHT22;53846;51.984;5.890;2022-09-09T15:51:41;21.70;67.80
66934;DHT22;53846;51.984;5.890;2022-09-09T15:54:15;21.50;67.70
66934;DHT22;53846;51.984;5.890;2022-09-09T15:56:47;21.80;68.20
66934;DHT22;53846;51.984;5.890;2022-09-09T15:59:18;21.50;67.20
66934;DHT22;53846;51.984;5.890;2022-09-09T16:01:47;21.50;67.40
66934;DHT22;53846;51.984;5.890;2022-09-09T16:04:17;21.50;67.70
66934;DHT22;53846;51.984;5.890;2022-09-09T16:06:50;21.40;71.30
66934;DHT22;53846;51.984;5.890;2022-09-09T16:09:22;21.30;71.70
66934;DHT22;53846;51.984;5.890;2022-09-09T16:11:51;21.10;70.00